Time;durP1;ratioP1;P1;durP2;ratioP2;P2;SDS_P1;SDS_P2;PMS_P1;PMS_P2;Temp;Humidity;BMP_temperature;BMP_pressure;BME280_temperature;BME280_humidity;BME280_pressure;Samples;Min_cycle;Max_cycle;Signal;HPM_P1;HPM_P2
2024/01/25 00:02:59;;;;;;;8.48;2.88;;;23.30;45.60;;;;;;6143578;28;80298;-58
2024/01/25 00:06:00;;;;;;;6.60;2.30;;;23.30;45.70;;;;;;6152321;28;81241;-59
2024/01/25 00:09:00;;;;;;;4.75;2.05;;;23.30;45.50;;;;;;6152915;28;80874;-59
2024/01/25 00:12:01;;;;;;;3.78;1.98;;;23.30;45.60;;;;;;6153250;28;80598;-66
2024/01/25 00:15:02;;;;;;;4.20;2.03;;;23.30;45.50;;;;;;6145161;28;80515;-65
2024/01/25 00:18:02;;;;;;;4.35;1.75;;;23.40;45.70;;;;;;6152362;28;80528;-65
2024/01/25 00:21:03;;;;;;;5.30;2.90;;;23.30;45.70;;;;;;6149807;28;82078;-65
2024/01/25 00:24:03;;;;;;;4.25;1.65;;;23.30;45.70;;;;;;6152016;28;81198;-65
2024/01/25 00:27:04;;;;;;;3.42;1.80;;;23.30;45.70;;;;;;6151957;28;80217;-67
2024/01/25 00:30:04;;;;;;;3.53;1.90;;;23.30;45.60;;;;;;6149832;28;82915;-67
2024/01/25 00:33:05;;;;;;;5.25;1.98;;;23.30;45.50;;;;;;6152095;28;80576;-67
2024/01/25 00:36:05;;;;;;;5.60;2.38;;;23.30;45.40;;;;;;6151178;28;81072;-67
2024/01/25 00:39:06;;;;;;;4.80;2.15;;;23.30;45.40;;;;;;6151112;28;80000;-67
2024/01/25 00:42:06;;;;;;;4.57;2.10;;;23.30;45.30;;;;;;6139211;28;80316;-66
2024/01/25 00:45:07;;;;;;;6.43;2.85;;;23.30;45.30;;;;;;6150178;28;80035;-69
2024/01/25 00:48:08;;;;;;;3.72;2.03;;;23.30;45.30;;;;;;6151824;28;81781;-68
2024/01/25 00:51:08;;;;;;;5.20;1.90;;;23.30;45.20;;;;;;6151646;28;80433;-57
2024/01/25 00:54:09;;;;;;;5.93;1.83;;;23.30;45.20;;;;;;6142253;28;80382;-56
2024/01/25 00:57:09;;;;;;;4.82;2.15;;;23.30;45.30;;;;;;6151038;28;81909;-57
2024/01/25 01:00:10;;;;;;;6.13;2.22;;;23.30;45.20;;;;;;6151845;28;81482;-58
2024/01/25 01:03:11;;;;;;;3.88;1.60;;;23.30;45.20;;;;;;6147189;28;80787;-58
2024/01/25 01:06:11;;;;;;;3.40;1.65;;;23.30;45.30;;;;;;6153178;28;80835;-55
2024/01/25 01:09:12;;;;;;;3.85;2.08;;;23.30;45.20;;;;;;6155975;28;81093;-62
2024/01/25 01:12:13;;;;;;;6.18;2.38;;;23.30;45.30;;;;;;6144159;28;80382;-61
2024/01/25 01:15:14;;;;;;;3.78;1.90;;;23.30;45.20;;;;;;6151471;28;81336;-62
2024/01/25 01:18:14;;;;;;;3.90;1.90;;;23.30;45.10;;;;;;6153372;28;80436;-60
2024/01/25 01:21:15;;;;;;;4.35;2.10;;;23.30;45.10;;;;;;6155681;28;81175;-61
2024/01/25 01:24:15;;;;;;;3.83;1.83;;;23.30;45.00;;;;;;6155649;28;80172;-61
2024/01/25 01:27:16;;;;;;;5.18;2.10;;;23.30;45.00;;;;;;6154904;28;80923;-61
2024/01/25 01:30:16;;;;;;;5.93;2.03;;;23.30;45.00;;;;;;6154871;28;81107;-61
2024/01/25 01:33:17;;;;;;;4.40;1.85;;;23.30;45.00;;;;;;6156229;28;81060;-61
2024/01/25 01:36:17;;;;;;;2.35;1.30;;;23.30;44.90;;;;;;6155865;28;81697;-62
2024/01/25 01:39:18;;;;;;;4.25;1.80;;;23.30;44.90;;;;;;6155840;28;80370;-61
2024/01/25 01:42:18;;;;;;;4.93;1.90;;;23.30;45.00;;;;;;6153512;28;80423;-60
2024/01/25 01:45:19;;;;;;;6.35;2.53;;;23.20;44.90;;;;;;6156249;28;80331;-67
2024/01/25 01:48:19;;;;;;;5.97;2.00;;;23.30;44.80;;;;;;6155485;28;80341;-68
2024/01/25 01:51:20;;;;;;;2.90;1.67;;;23.20;44.60;;;;;;6142997;28;81914;-66
2024/01/25 01:54:20;;;;;;;6.10;1.52;;;23.20;44.60;;;;;;6154880;28;80644;-66
2024/01/25 01:57:21;;;;;;;6.35;1.90;;;23.30;44.50;;;;;;6149973;28;80218;-64
2024/01/25 02:00:22;;;;;;;3.50;1.65;;;23.30;44.40;;;;;;6144742;28;80906;-63
2024/01/25 02:03:22;;;;;;;4.55;2.22;;;23.20;44.40;;;;;;6154559;28;80529;-60
2024/01/25 02:06:23;;;;;;;5.18;1.90;;;23.30;44.50;;;;;;6141862;28;80249;-61
2024/01/25 02:09:23;;;;;;;5.57;2.00;;;23.20;44.50;;;;;;6141631;28;81712;-62
2024/01/25 02:12:24;;;;;;;4.80;1.92;;;23.30;44.50;;;;;;6144171;28;80482;-61
2024/01/25 02:15:24;;;;;;;3.58;1.40;;;23.20;44.40;;;;;;6155875;28;81456;-62
2024/01/25 02:18:25;;;;;;;2.70;1.50;;;23.20;44.40;;;;;;6152827;28;82086;-62
2024/01/25 02:21:25;;;;;;;6.20;2.05;;;23.30;44.40;;;;;;6154993;28;80571;-60
2024/01/25 02:24:26;;;;;;;5.85;2.45;;;23.30;44.40;;;;;;6154270;28;80436;-59
2024/01/25 02:27:26;;;;;;;3.30;1.75;;;23.30;44.40;;;;;;6153964;28;80482;-61
2024/01/25 02:30:27;;;;;;;5.88;1.67;;;23.30;44.30;;;;;;6151177;28;80388;-60
2024/01/25 02:33:27;;;;;;;6.03;1.50;;;23.30;44.30;;;;;;6173673;28;87488;-61
2024/01/25 02:36:28;;;;;;;3.90;1.85;;;23.20;44.30;;;;;;6160129;28;80392;-61
2024/01/25 02:39:28;;;;;;;3.58;1.52;;;23.20;44.30;;;;;;6154871;28;80723;-66
2024/01/25 02:42:29;;;;;;;3.15;1.55;;;23.30;44.30;;;;;;6132106;28;81091;-65
2024/01/25 02:45:29;;;;;;;4.88;1.60;;;23.30;44.20;;;;;;6130469;28;80639;-66
2024/01/25 02:48:30;;;;;;;4.32;1.92;;;23.30;44.40;;;;;;6145003;28;84740;-65
2024/01/25 02:51:30;;;;;;;5.07;2.03;;;23.20;44.30;;;;;;6138388;28;80389;-65
2024/01/25 02:54:31;;;;;;;3.22;1.15;;;23.30;44.40;;;;;;6151806;28;80466;-66
2024/01/25 02:57:32;;;;;;;4.00;1.90;;;23.30;44.40;;;;;;6152754;28;80970;-68
2024/01/25 03:00:32;;;;;;;4.10;1.52;;;23.30;44.30;;;;;;6139933;28;80919;-70
2024/01/25 03:03:33;;;;;;;3.33;1.50;;;23.30;44.30;;;;;;6141585;28;82173;-69
2024/01/25 03:06:33;;;;;;;5.32;1.92;;;23.30;44.40;;;;;;6155037;28;81419;-69
2024/01/25 03:09:34;;;;;;;3.42;1.58;;;23.30;44.50;;;;;;6134938;28;81972;-68
2024/01/25 03:12:34;;;;;;;4.18;1.80;;;23.30;44.60;;;;;;6151208;28;80318;-69
2024/01/25 03:15:35;;;;;;;3.47;1.58;;;23.20;44.50;;;;;;6153352;28;81079;-70
2024/01/25 03:18:35;;;;;;;4.35;1.63;;;23.30;44.50;;;;;;6142975;28;80512;-67
2024/01/25 03:21:36;;;;;;;3.35;1.30;;;23.20;44.50;;;;;;6152138;28;80562;-67
2024/01/25 03:24:36;;;;;;;3.47;1.60;;;23.20;44.40;;;;;;6139738;28;81121;-67
2024/01/25 03:27:37;;;;;;;3.15;1.40;;;23.30;44.40;;;;;;6152504;28;80453;-64
2024/01/25 03:30:37;;;;;;;3.30;1.40;;;23.30;44.30;;;;;;6150606;28;80202;-67
2024/01/25 03:33:38;;;;;;;3.72;1.40;;;23.30;44.30;;;;;;6153069;28;80432;-68
2024/01/25 03:36:39;;;;;;;3.22;1.35;;;23.30;44.20;;;;;;6140944;28;81106;-69
2024/01/25 03:39:40;;;;;;;2.65;1.27;;;23.30;44.20;;;;;;6130021;28;80450;-68
2024/01/25 03:42:40;;;;;;;3.10;1.23;;;23.30;44.30;;;;;;6143940;28;80035;-68
2024/01/25 03:45:40;;;;;;;4.25;1.65;;;23.30;44.20;;;;;;6151650;28;80943;-67
2024/01/25 03:48:41;;;;;;;3.92;1.42;;;23.30;44.30;;;;;;6153480;28;80949;-67
2024/01/25 03:51:42;;;;;;;2.83;1.35;;;23.30;44.30;;;;;;6144123;28;80817;-68
2024/01/25 03:54:43;;;;;;;2.88;1.38;;;23.30;44.20;;;;;;6152747;28;80559;-68
2024/01/25 03:57:43;;;;;;;5.55;2.10;;;23.30;44.10;;;;;;6152568;28;80739;-67
2024/01/25 04:00:44;;;;;;;3.10;1.58;;;23.30;44.20;;;;;;6143822;28;80273;-61
2024/01/25 04:03:44;;;;;;;2.80;1.35;;;23.30;44.10;;;;;;6147155;28;80641;-64
2024/01/25 04:06:48;;;;;;;3.72;1.40;;;23.30;44.70;;;;;;6148865;28;80014;-64
2024/01/25 04:09:50;;;;;;;2.35;1.23;;;23.30;45.30;;;;;;6146138;28;80676;-61
2024/01/25 04:12:50;;;;;;;7.57;1.75;;;23.30;45.10;;;;;;6145834;28;80625;-63
2024/01/25 04:15:51;;;;;;;5.75;1.70;;;23.30;45.10;;;;;;6151944;28;80848;-62
2024/01/25 04:18:51;;;;;;;6.03;1.80;;;23.20;44.90;;;;;;6152675;28;80574;-62
2024/01/25 04:21:52;;;;;;;4.28;1.73;;;23.20;44.80;;;;;;6146820;28;80547;-64
2024/01/25 04:24:52;;;;;;;3.60;1.40;;;23.30;44.70;;;;;;6151294;28;80482;-68
2024/01/25 04:27:53;;;;;;;3.00;1.50;;;23.30;45.00;;;;;;6151776;28;80222;-64
2024/01/25 04:30:53;;;;;;;3.50;1.50;;;23.30;44.90;;;;;;6152434;28;80871;-64
2024/01/25 04:33:54;;;;;;;3.05;1.52;;;23.30;44.40;;;;;;6144957;28;83256;-61
2024/01/25 04:36:54;;;;;;;3.38;1.50;;;23.30;44.60;;;;;;6151556;28;80901;-60
2024/01/25 04:39:55;;;;;;;1.85;1.13;;;23.40;44.80;;;;;;6138411;28;80072;-60
2024/01/25 04:42:55;;;;;;;5.15;1.70;;;23.50;44.70;;;;;;6132476;28;80873;-64
2024/01/25 04:45:56;;;;;;;7.85;1.65;;;23.50;45.10;;;;;;6146343;28;80951;-63
2024/01/25 04:48:56;;;;;;;4.88;1.30;;;23.60;44.70;;;;;;6147485;28;80429;-67
2024/01/25 04:51:57;;;;;;;6.18;1.75;;;23.60;45.00;;;;;;6150815;28;80394;-67
2024/01/25 04:54:57;;;;;;;4.63;1.70;;;23.60;45.20;;;;;;6149449;28;80784;-65
2024/01/25 04:57:58;;;;;;;1.95;1.02;;;23.60;45.60;;;;;;6152292;28;80406;-69
2024/01/25 05:00:59;;;;;;;2.55;1.23;;;23.60;45.80;;;;;;6143307;28;81011;-66
2024/01/25 05:04:00;;;;;;;3.78;1.30;;;23.70;46.00;;;;;;6151368;28;80563;-66
2024/01/25 05:07:00;;;;;;;3.40;1.25;;;23.70;46.00;;;;;;6138450;28;80458;-64
2024/01/25 05:10:01;;;;;;;5.20;1.35;;;23.70;47.20;;;;;;6151493;28;80492;-66
2024/01/25 05:13:01;;;;;;;3.45;1.65;;;23.70;46.70;;;;;;6143933;28;81736;-65
2024/01/25 05:16:02;;;;;;;4.15;1.70;;;23.70;46.60;;;;;;6147275;28;80996;-61
2024/01/25 05:19:02;;;;;;;5.38;1.73;;;23.80;46.60;;;;;;6150954;28;81105;-62
2024/01/25 05:22:06;;;;;;;5.40;1.73;;;23.80;46.60;;;;;;6150318;28;83537;-63
2024/01/25 05:25:08;;;;;;;3.67;1.27;;;23.80;46.60;;;;;;6151568;28;81128;-60
2024/01/25 05:28:08;;;;;;;6.20;1.60;;;23.80;46.50;;;;;;6150932;28;80365;-62
2024/01/25 05:31:12;;;;;;;5.80;1.40;;;23.80;46.20;;;;;;6148218;28;80701;-62
2024/01/25 05:34:13;;;;;;;6.22;1.92;;;23.80;45.90;;;;;;6149439;28;87583;-60
2024/01/25 05:37:13;;;;;;;5.47;1.70;;;23.80;45.60;;;;;;6141969;28;80474;-62
2024/01/25 05:40:14;;;;;;;4.57;1.88;;;23.80;45.60;;;;;;6161458;28;82268;-64
2024/01/25 05:43:14;;;;;;;5.97;1.98;;;23.80;45.60;;;;;;6135311;28;80638;-62
2024/01/25 05:46:15;;;;;;;3.60;1.73;;;23.80;45.30;;;;;;6148537;28;80604;-64
2024/01/25 05:49:15;;;;;;;5.55;2.35;;;23.80;45.10;;;;;;6149258;28;80454;-63
2024/01/25 05:52:16;;;;;;;4.28;1.90;;;23.80;44.90;;;;;;6137923;28;80622;-62
2024/01/25 05:55:16;;;;;;;4.65;1.40;;;23.70;44.70;;;;;;6154667;28;81439;-62
2024/01/25 05:58:17;;;;;;;6.38;2.00;;;23.70;44.60;;;;;;6137569;28;82662;-63
2024/01/25 06:01:18;;;;;;;6.38;2.65;;;23.70;44.50;;;;;;6152478;28;80854;-53
2024/01/25 06:04:19;;;;;;;5.40;1.52;;;23.70;44.50;;;;;;6152411;28;80808;-46
2024/01/25 06:07:20;;;;;;;6.05;2.00;;;23.60;44.10;;;;;;6139435;28;81558;-51
2024/01/25 06:10:20;;;;;;;5.25;2.00;;;23.60;44.20;;;;;;6154522;28;80486;-48
2024/01/25 06:13:21;;;;;;;4.78;2.38;;;23.60;44.70;;;;;;6153663;28;82297;-52
2024/01/25 06:16:21;;;;;;;4.18;2.22;;;23.50;43.90;;;;;;6151868;28;81704;-50
2024/01/25 06:19:22;;;;;;;6.97;2.78;;;23.50;44.00;;;;;;6150570;28;80378;-54
2024/01/25 06:22:23;;;;;;;6.85;2.60;;;23.40;42.50;;;;;;6156235;28;80847;-50
2024/01/25 06:25:23;;;;;;;5.45;2.30;;;23.30;41.80;;;;;;6148784;28;81011;-54
2024/01/25 06:28:25;;;;;;;5.38;2.10;;;23.20;41.10;;;;;;6138866;28;80947;-52
2024/01/25 06:31:26;;;;;;;5.32;2.30;;;23.20;40.80;;;;;;6149382;28;81833;-51
2024/01/25 06:34:26;;;;;;;6.90;2.42;;;23.10;40.30;;;;;;6158555;28;82447;-49
2024/01/25 06:37:27;;;;;;;9.18;2.40;;;23.00;40.00;;;;;;6170132;28;80409;-55
2024/01/25 06:40:27;;;;;;;7.32;2.88;;;23.00;39.90;;;;;;6145862;28;82385;-57
2024/01/25 06:43:28;;;;;;;8.48;2.42;;;22.90;39.70;;;;;;6142018;28;81927;-54
2024/01/25 06:46:28;;;;;;;8.85;3.17;;;22.90;39.60;;;;;;6152348;28;81640;-56
2024/01/25 06:49:29;;;;;;;6.45;2.50;;;22.90;39.50;;;;;;6151724;28;81412;-54
2024/01/25 06:52:29;;;;;;;7.78;2.55;;;22.80;39.90;;;;;;6141421;28;80435;-57
2024/01/25 06:55:30;;;;;;;9.18;2.78;;;22.80;39.50;;;;;;6148422;28;80365;-55
2024/01/25 06:58:30;;;;;;;4.35;2.05;;;22.70;39.60;;;;;;6155945;28;82702;-57
2024/01/25 07:01:32;;;;;;;5.82;2.22;;;22.70;39.60;;;;;;6151986;28;80450;-56
2024/01/25 07:04:33;;;;;;;7.28;2.50;;;22.60;39.60;;;;;;6154757;28;80439;-56
2024/01/25 07:07:33;;;;;;;6.30;2.83;;;22.60;39.80;;;;;;6155183;28;80814;-54
2024/01/25 07:10:34;;;;;;;6.70;2.60;;;22.60;39.90;;;;;;6149954;28;80382;-56
2024/01/25 07:13:34;;;;;;;7.90;2.50;;;22.60;40.00;;;;;;6153741;28;83092;-57
2024/01/25 07:16:35;;;;;;;5.68;2.42;;;22.50;40.20;;;;;;6152465;28;80483;-56
2024/01/25 07:19:36;;;;;;;7.70;2.85;;;22.50;40.10;;;;;;6151241;28;80522;-57
2024/01/25 07:22:37;;;;;;;7.55;3.03;;;22.50;40.20;;;;;;6149572;28;81348;-56
2024/01/25 07:25:37;;;;;;;8.63;2.20;;;22.40;40.20;;;;;;6153858;28;80464;-56
2024/01/25 07:28:38;;;;;;;5.97;2.38;;;22.40;40.20;;;;;;6147922;28;80615;-57
2024/01/25 07:31:38;;;;;;;6.93;2.63;;;22.30;40.20;;;;;;6148307;28;80597;-56
2024/01/25 07:34:39;;;;;;;8.52;2.63;;;22.30;40.20;;;;;;6151736;28;81354;-46
2024/01/25 07:37:40;;;;;;;10.50;3.08;;;22.30;40.30;;;;;;6151946;28;80423;-49
2024/01/25 07:40:41;;;;;;;6.68;2.80;;;22.30;40.30;;;;;;6152398;28;80428;-47
2024/01/25 07:43:41;;;;;;;10.07;2.92;;;22.20;40.10;;;;;;6142024;28;85785;-51
2024/01/25 07:46:42;;;;;;;10.00;2.88;;;22.20;40.20;;;;;;6153686;28;81264;-48
2024/01/25 07:49:42;;;;;;;6.88;2.55;;;22.20;40.20;;;;;;6152382;28;81264;-48
2024/01/25 07:52:43;;;;;;;7.40;2.72;;;22.20;40.10;;;;;;6129967;28;80924;-63
2024/01/25 07:55:43;;;;;;;8.10;2.70;;;22.10;40.10;;;;;;6152045;28;80564;-62
2024/01/25 07:58:44;;;;;;;7.60;2.50;;;22.20;40.20;;;;;;6153061;28;81068;-62
2024/01/25 08:01:44;;;;;;;7.30;2.63;;;22.10;40.20;;;;;;6153265;28;80514;-62
2024/01/25 08:04:45;;;;;;;7.55;3.10;;;22.10;40.30;;;;;;6153628;28;80624;-62
2024/01/25 08:07:46;;;;;;;7.18;2.55;;;22.10;40.40;;;;;;6152608;28;80621;-63
2024/01/25 08:10:47;;;;;;;7.35;2.97;;;22.10;40.50;;;;;;6141414;28;81759;-63
2024/01/25 08:13:47;;;;;;;7.10;2.60;;;22.00;40.60;;;;;;6154057;28;80425;-62
2024/01/25 08:16:48;;;;;;;9.35;3.15;;;22.00;40.70;;;;;;6152402;28;80965;-61
2024/01/25 08:19:48;;;;;;;7.80;2.65;;;22.00;40.80;;;;;;6150773;28;80450;-63
2024/01/25 08:22:49;;;;;;;6.90;2.92;;;22.00;40.90;;;;;;6153884;28;80599;-62
2024/01/25 08:25:49;;;;;;;6.35;2.20;;;22.00;41.00;;;;;;6140803;28;80848;-63
2024/01/25 08:28:50;;;;;;;5.82;2.38;;;21.90;41.00;;;;;;6152693;28;80176;-64
2024/01/25 08:31:51;;;;;;;12.05;3.90;;;21.90;41.80;;;;;;6144203;28;80729;-63
2024/01/25 08:34:51;;;;;;;9.63;3.08;;;21.90;41.10;;;;;;6153788;28;80759;-63
2024/01/25 08:37:52;;;;;;;6.35;2.85;;;21.90;41.10;;;;;;6153421;28;83413;-62
2024/01/25 08:40:52;;;;;;;8.52;2.85;;;22.00;41.20;;;;;;6153170;28;80807;-63
2024/01/25 08:43:53;;;;;;;5.65;2.63;;;21.90;41.10;;;;;;6153694;28;87547;-63
2024/01/25 08:46:53;;;;;;;7.95;2.65;;;21.90;41.10;;;;;;6159767;28;80451;-53
2024/01/25 08:49:54;;;;;;;7.43;3.15;;;21.90;41.00;;;;;;6168896;28;82546;-48
2024/01/25 08:52:55;;;;;;;6.80;2.72;;;22.00;41.00;;;;;;6154126;28;80829;-48
2024/01/25 08:55:55;;;;;;;5.78;2.58;;;21.90;41.00;;;;;;6153148;28;80414;-51
2024/01/25 08:58:56;;;;;;;6.60;2.47;;;21.90;41.00;;;;;;6150704;28;85188;-49
2024/01/25 09:01:56;;;;;;;8.38;2.90;;;21.90;40.90;;;;;;6151753;28;80585;-49
2024/01/25 09:04:57;;;;;;;7.72;3.03;;;21.90;41.00;;;;;;6136070;28;83456;-46
2024/01/25 09:07:58;;;;;;;9.93;2.70;;;22.00;41.00;;;;;;6177429;28;82285;-46
2024/01/25 09:10:58;;;;;;;7.38;3.00;;;22.00;41.30;;;;;;6165393;28;80561;-47
2024/01/25 09:13:59;;;;;;;10.05;2.58;;;22.00;41.10;;;;;;6145250;28;83829;-45
2024/01/25 09:16:59;;;;;;;8.27;2.92;;;22.00;40.90;;;;;;6146701;28;81664;-49
2024/01/25 09:20:00;;;;;;;12.38;3.20;;;22.00;41.00;;;;;;6154546;28;80581;-49
2024/01/25 09:23:00;;;;;;;9.25;3.28;;;22.00;41.10;;;;;;6154803;28;80790;-66
2024/01/25 09:26:01;;;;;;;7.20;2.85;;;22.00;40.90;;;;;;6152590;28;80551;-63
2024/01/25 09:29:02;;;;;;;7.38;2.67;;;22.10;40.90;;;;;;6145751;28;87391;-62
2024/01/25 09:32:02;;;;;;;9.70;3.55;;;22.10;40.70;;;;;;6149631;28;82163;-67
2024/01/25 09:35:02;;;;;;;9.70;3.20;;;22.10;40.70;;;;;;6158806;28;80327;-67
2024/01/25 09:38:03;;;;;;;7.32;3.05;;;22.10;40.60;;;;;;6159342;28;80235;-60
2024/01/25 09:41:04;;;;;;;8.13;2.75;;;22.20;40.40;;;;;;6149792;28;81268;-64
2024/01/25 09:44:04;;;;;;;5.55;2.38;;;22.20;40.40;;;;;;6147674;28;80122;-65
2024/01/25 09:47:07;;;;;;;6.75;2.80;;;22.20;40.40;;;;;;6144070;28;80507;-64
2024/01/25 09:50:07;;;;;;;9.73;2.85;;;22.20;40.20;;;;;;6145869;28;80507;-62
2024/01/25 09:53:08;;;;;;;10.73;3.05;;;22.20;40.10;;;;;;6158440;28;80425;-66
2024/01/25 09:56:08;;;;;;;8.45;3.20;;;22.20;40.20;;;;;;6155034;28;80683;-66
2024/01/25 09:59:09;;;;;;;9.27;3.80;;;22.20;40.00;;;;;;6157499;28;80512;-66
2024/01/25 10:02:09;;;;;;;5.82;2.83;;;22.20;40.00;;;;;;6154980;28;80522;-55
2024/01/25 10:05:10;;;;;;;6.15;2.85;;;22.30;40.10;;;;;;6158689;28;80733;-56
2024/01/25 10:08:11;;;;;;;9.70;3.33;;;22.30;41.00;;;;;;6157257;28;80278;-56
2024/01/25 10:11:11;;;;;;;6.00;2.40;;;22.40;40.40;;;;;;6149214;28;81209;-54
2024/01/25 10:14:12;;;;;;;6.18;2.80;;;22.40;40.40;;;;;;6154435;28;80780;-56
2024/01/25 10:17:12;;;;;;;8.25;2.67;;;22.60;40.50;;;;;;6155215;28;81704;-57
2024/01/25 10:20:13;;;;;;;8.57;3.20;;;22.70;40.70;;;;;;6157314;28;81195;-55
2024/01/25 10:23:13;;;;;;;7.63;2.72;;;22.70;40.90;;;;;;6155892;28;83479;-56
2024/01/25 10:26:14;;;;;;;9.90;2.92;;;22.80;40.90;;;;;;6147564;28;80494;-56
2024/01/25 10:29:14;;;;;;;11.05;3.78;;;22.90;40.90;;;;;;6138232;28;80491;-56
2024/01/25 10:32:15;;;;;;;6.32;2.15;;;22.90;41.00;;;;;;6154196;28;80189;-55
2024/01/25 10:35:15;;;;;;;8.68;2.80;;;22.90;41.00;;;;;;6148959;28;82448;-55
2024/01/25 10:38:16;;;;;;;7.97;3.17;;;23.00;41.10;;;;;;6150298;28;80755;-63
2024/01/25 10:41:17;;;;;;;6.82;2.88;;;23.00;41.00;;;;;;6153223;28;82549;-63
2024/01/25 10:44:21;;;;;;;7.93;3.22;;;23.00;41.00;;;;;;6146496;28;81416;-62
2024/01/25 10:47:21;;;;;;;7.18;2.75;;;23.00;41.00;;;;;;6156441;28;82558;-62
2024/01/25 10:50:24;;;;;;;7.03;2.67;;;23.10;41.00;;;;;;6155272;28;82230;-63
2024/01/25 10:53:25;;;;;;;9.95;3.03;;;23.10;41.00;;;;;;6157775;28;80223;-64
2024/01/25 10:56:25;;;;;;;6.20;2.60;;;23.10;41.10;;;;;;6157297;28;81194;-64
2024/01/25 10:59:27;;;;;;;6.20;3.03;;;23.10;41.00;;;;;;6154923;28;81310;-62
2024/01/25 11:02:28;;;;;;;6.32;3.03;;;23.10;40.90;;;;;;6145319;28;83256;-62
2024/01/25 11:05:28;;;;;;;9.00;3.00;;;23.20;41.00;;;;;;6156409;28;81353;-62
2024/01/25 11:08:29;;;;;;;5.60;2.33;;;23.20;41.00;;;;;;6153261;28;79928;-63
2024/01/25 11:11:29;;;;;;;6.40;2.58;;;23.20;40.90;;;;;;6143812;28;80684;-62
2024/01/25 11:14:31;;;;;;;7.95;2.53;;;23.20;40.90;;;;;;6152622;28;80494;-62
2024/01/25 11:17:32;;;;;;;7.53;3.10;;;23.20;40.90;;;;;;6150140;28;84241;-63
2024/01/25 11:20:33;;;;;;;7.70;2.60;;;23.20;40.90;;;;;;6136034;28;80235;-63
2024/01/25 11:23:34;;;;;;;6.85;2.92;;;23.20;40.90;;;;;;6145022;28;79968;-63
2024/01/25 11:26:34;;;;;;;7.97;2.58;;;23.20;40.90;;;;;;6156646;28;80753;-62
2024/01/25 11:29:35;;;;;;;7.18;2.50;;;23.20;40.90;;;;;;6152907;28;81599;-63
2024/01/25 11:32:35;;;;;;;6.60;2.25;;;23.30;40.90;;;;;;6157018;28;81132;-58
2024/01/25 11:35:36;;;;;;;7.03;3.03;;;23.30;40.90;;;;;;6138813;28;82381;-59
2024/01/25 11:38:36;;;;;;;5.10;2.45;;;23.30;40.90;;;;;;6147505;28;82387;-57
2024/01/25 11:41:37;;;;;;;7.60;3.13;;;23.30;40.80;;;;;;6147424;28;80374;-59
2024/01/25 11:44:39;;;;;;;8.60;2.72;;;23.30;40.80;;;;;;6151949;28;80784;-58
2024/01/25 11:47:39;;;;;;;6.43;2.83;;;23.30;40.70;;;;;;6150992;28;80452;-59
2024/01/25 11:50:40;;;;;;;7.85;2.55;;;23.30;40.60;;;;;;6139196;28;80249;-50
2024/01/25 11:53:40;;;;;;;9.25;3.15;;;23.30;40.60;;;;;;6141480;28;80839;-47
2024/01/25 11:56:41;;;;;;;7.97;2.78;;;23.30;40.50;;;;;;6151762;28;81109;-48
2024/01/25 11:59:41;;;;;;;5.75;2.65;;;23.30;40.50;;;;;;6153683;28;80913;-49
2024/01/25 12:02:42;;;;;;;6.35;2.60;;;23.30;40.40;;;;;;6149056;28;80446;-47
2024/01/25 12:05:43;;;;;;;7.68;3.28;;;23.30;40.40;;;;;;6155475;28;81878;-49
2024/01/25 12:08:44;;;;;;;8.02;2.90;;;23.40;40.40;;;;;;6154448;28;80214;-58
2024/01/25 12:11:44;;;;;;;8.55;2.80;;;23.40;40.50;;;;;;6153020;28;80698;-59
2024/01/25 12:14:46;;;;;;;7.88;2.75;;;23.40;40.40;;;;;;6144908;28;80605;-59
2024/01/25 12:17:46;;;;;;;8.02;3.10;;;23.40;40.30;;;;;;6139447;28;81250;-58
2024/01/25 12:20:47;;;;;;;7.20;3.00;;;23.40;40.40;;;;;;6149155;28;82140;-58
2024/01/25 12:23:47;;;;;;;4.68;2.17;;;23.40;40.40;;;;;;6150740;28;80562;-56
2024/01/25 12:26:48;;;;;;;6.32;2.78;;;23.50;40.50;;;;;;6147018;28;87098;-52
2024/01/25 12:29:48;;;;;;;5.78;2.50;;;23.50;40.50;;;;;;6167563;28;80849;-49
2024/01/25 12:32:49;;;;;;;6.57;2.42;;;23.50;40.60;;;;;;6161941;28;81399;-52
2024/01/25 12:35:50;;;;;;;7.95;2.55;;;23.50;40.70;;;;;;6147942;28;81464;-51
2024/01/25 12:38:50;;;;;;;4.68;2.35;;;23.50;40.70;;;;;;6147957;28;81149;-51
2024/01/25 12:41:51;;;;;;;7.63;2.55;;;23.40;40.60;;;;;;6148892;28;81315;-50
2024/01/25 12:44:51;;;;;;;5.47;2.55;;;23.50;40.70;;;;;;6152293;28;81537;-55
2024/01/25 12:47:52;;;;;;;5.10;2.63;;;23.50;40.60;;;;;;6152995;28;80362;-68
2024/01/25 12:50:52;;;;;;;6.78;2.70;;;23.50;40.60;;;;;;6152709;28;81364;-65
2024/01/25 12:53:53;;;;;;;6.53;2.88;;;23.50;40.90;;;;;;6153223;28;80371;-62
2024/01/25 12:56:53;;;;;;;8.48;2.38;;;23.50;40.90;;;;;;6147475;28;80789;-65
2024/01/25 12:59:54;;;;;;;5.25;2.38;;;23.50;40.90;;;;;;6138846;28;80474;-70
2024/01/25 13:02:56;;;;;;;4.40;1.90;;;23.50;41.10;;;;;;6158325;28;80414;-69
2024/01/25 13:05:56;;;;;;;5.05;2.13;;;23.50;40.90;;;;;;6158634;28;81161;-63
2024/01/25 13:08:57;;;;;;;8.60;2.53;;;23.50;41.00;;;;;;6144033;28;81464;-68
2024/01/25 13:11:57;;;;;;;5.18;2.72;;;23.50;41.10;;;;;;6153946;28;82096;-59
2024/01/25 13:14:58;;;;;;;5.10;2.20;;;23.50;41.20;;;;;;6154208;28;81480;-68
2024/01/25 13:18:00;;;;;;;5.00;1.90;;;23.50;41.40;;;;;;6158685;28;80509;-65
2024/01/25 13:21:01;;;;;;;4.78;2.08;;;23.50;41.50;;;;;;6157808;28;80293;-68
2024/01/25 13:24:01;;;;;;;6.35;2.33;;;23.50;42.20;;;;;;6154580;28;81498;-52
2024/01/25 13:27:03;;;;;;;5.72;2.45;;;23.50;41.70;;;;;;6155999;28;81652;-56
2024/01/25 13:30:05;;;;;;;4.68;1.83;;;23.60;41.70;;;;;;6153874;28;82372;-54
2024/01/25 13:33:05;;;;;;;7.60;2.42;;;23.60;41.40;;;;;;6155061;28;80351;-48
2024/01/25 13:36:08;;;;;;;4.68;2.33;;;23.60;41.20;;;;;;6154989;28;80786;-48
2024/01/25 13:39:10;;;;;;;6.82;2.28;;;23.60;41.90;;;;;;6155319;28;80977;-47
2024/01/25 13:42:10;;;;;;;5.88;2.40;;;23.60;41.10;;;;;;6143170;28;80566;-62
2024/01/25 13:45:11;;;;;;;4.18;2.30;;;23.60;41.10;;;;;;6154520;28;81986;-62
2024/01/25 13:48:11;;;;;;;5.35;1.90;;;23.60;41.00;;;;;;6149912;28;80399;-61
2024/01/25 13:51:12;;;;;;;5.90;2.70;;;23.60;41.00;;;;;;6172665;28;80963;-61
2024/01/25 13:54:13;;;;;;;6.13;2.17;;;23.60;40.90;;;;;;6160671;28;80445;-62
2024/01/25 13:57:13;;;;;;;6.80;2.72;;;23.50;40.90;;;;;;6151338;28;80597;-62
2024/01/25 14:00:14;;;;;;;5.90;2.65;;;23.60;41.00;;;;;;6155109;28;80476;-65
2024/01/25 14:03:14;;;;;;;5.55;2.10;;;23.50;40.90;;;;;;6141339;28;80296;-74
2024/01/25 14:06:15;;;;;;;7.65;2.42;;;23.50;40.90;;;;;;6149382;28;81014;-65
2024/01/25 14:09:15;;;;;;;9.18;2.80;;;23.50;40.90;;;;;;6149764;28;80893;-65
2024/01/25 14:12:16;;;;;;;4.55;1.98;;;23.60;41.00;;;;;;6154312;28;80867;-64
2024/01/25 14:15:16;;;;;;;11.02;2.63;;;23.60;41.10;;;;;;6152270;28;84009;-64
2024/01/25 14:18:17;;;;;;;8.93;1.98;;;23.60;41.20;;;;;;6150358;28;80966;-71
2024/01/25 14:21:20;;;;;;;15.10;2.40;;;23.60;41.10;;;;;;6151388;28;80753;-71
2024/01/25 14:24:21;;;;;;;10.00;2.35;;;23.60;41.00;;;;;;6152850;28;84631;-63
2024/01/25 14:27:21;;;;;;;6.13;2.10;;;23.60;40.90;;;;;;6154027;28;80541;-64
2024/01/25 14:30:22;;;;;;;5.70;2.05;;;23.60;41.00;;;;;;6151939;28;80400;-64
2024/01/25 14:33:22;;;;;;;7.88;2.13;;;23.60;41.00;;;;;;6152380;28;80388;-64
2024/01/25 14:36:23;;;;;;;12.10;2.80;;;23.60;41.00;;;;;;6153323;28;80823;-56
2024/01/25 14:39:24;;;;;;;4.65;2.28;;;23.70;41.30;;;;;;6133126;28;82397;-58
2024/01/25 14:42:24;;;;;;;9.32;2.35;;;23.60;41.60;;;;;;6138723;28;80684;-56
2024/01/25 14:45:25;;;;;;;4.35;1.98;;;23.70;41.80;;;;;;6154085;28;83696;-53
2024/01/25 14:48:25;;;;;;;6.85;3.03;;;23.60;41.90;;;;;;6140889;28;80760;-56
2024/01/25 14:51:26;;;;;;;6.68;2.67;;;23.70;42.00;;;;;;6137995;28;80615;-55
2024/01/25 14:54:27;;;;;;;7.60;2.50;;;23.70;42.40;;;;;;6152291;28;80666;-60
2024/01/25 14:57:27;;;;;;;6.57;2.45;;;23.60;42.70;;;;;;6154374;28;81031;-67
2024/01/25 15:00:28;;;;;;;10.25;2.33;;;23.60;43.20;;;;;;6154567;28;81087;-65
2024/01/25 15:03:28;;;;;;;9.00;2.88;;;23.60;43.40;;;;;;6143899;28;81124;-68
2024/01/25 15:06:29;;;;;;;11.77;2.05;;;23.70;43.60;;;;;;6150693;28;80513;-69
2024/01/25 15:09:29;;;;;;;11.38;2.45;;;23.70;43.60;;;;;;6149798;28;81994;-67
2024/01/25 15:12:30;;;;;;;10.10;2.90;;;23.70;43.90;;;;;;6154500;28;81199;-53
2024/01/25 15:15:30;;;;;;;12.75;3.13;;;23.70;44.10;;;;;;6151388;28;80521;-53
2024/01/25 15:18:31;;;;;;;9.00;2.88;;;23.70;44.50;;;;;;6153741;28;81061;-52
2024/01/25 15:21:31;;;;;;;14.95;3.53;;;23.70;44.70;;;;;;6148704;28;80913;-53
2024/01/25 15:24:32;;;;;;;14.50;3.85;;;23.70;45.00;;;;;;6151061;28;81820;-54
2024/01/25 15:27:33;;;;;;;16.70;3.45;;;23.70;45.10;;;;;;6152984;28;81282;-55
2024/01/25 15:30:33;;;;;;;12.70;3.65;;;23.70;45.10;;;;;;6145730;28;80343;-57
2024/01/25 15:33:33;;;;;;;19.98;3.72;;;23.70;45.40;;;;;;6154307;28;80878;-52
2024/01/25 15:36:35;;;;;;;7.55;3.45;;;23.70;45.50;;;;;;6151874;28;80857;-52
2024/01/25 15:39:36;;;;;;;10.15;3.17;;;23.60;45.50;;;;;;6153516;28;81526;-55